Skip Navigation Links Skip Navigation Links

Current Weather

Virginia Tech, Blacksburg, Va.

For information only: do not use for flight planning or navigation.
Latest weather
Observation time Thursday, December 13, 2018 1:55 PM EST
Local time Thursday, December 13, 2018 2:11 PM EST
Flight conditions Visual Meteorological Conditions
Winds
Wind speed calm
Visibility 10 mi.
Sky condition
Ceiling 4,400 ft. overcast
Cloud layer overcast 4,400 ft.
Temperature 45°F
Dewpoint 26°F
Altimeter 30.25 in.Hg
Derived measurements
Relative humidity 47%
Wind chill 45°F
Density altitude 893 ft.
Remarks
Fully automated report.
Automated weather observing station with precipitation discriminator.
METAR KBCB 131855Z AUTO 00000KT 10SM OVC044 07/M03 A3025 RMK AO2 T00721034

Settings

Location code

InnerDrive.Weather 4.0.6770.0 Release CLR 4.0.30319.42000
Copyright ©2018 Inner Drive Technology. All rights reserved. Portions Copyright ©1986-2018 David Braverman.

Find weather

Site navigation


Skip Navigation Links

Place info

Page info

PayPal - The safer, easier way to pay online!

Return home.

Copyright ©2018 Inner Drive Technology. Purveyors of fine, hand-crafted computer software. Page printed 2018-12-13T19:11:40 UTC.